Terminal Aerodrome Forecast
Issued by NWS Wilmington, OH

Current Version | Previous Version | Graphics & Text | Print | Product List | Glossary On
Versions: 1 2 3 4 5 6 7 8 9 10 11 12 13 14 15 16 17 18 19 20 21 22 23
000
FTUS41 KILN 190500
TAFDAY
TAF
KDAY 190540Z 1906/2006 32008KT P6SM SCT020 OVC035
      TEMPO 1906/1909 OVC025
     FM190900 30004KT P6SM SCT025
     FM191400 24006KT P6SM SCT200
     FM200400 19004KT P6SM BKN200=

USA.gov is the U.S. government's official web portal to all federal, state and local government web resources and services.